createdAt,value
2023-08-23T00:01:28.485Z,20.49
2023-08-23T00:03:10.301Z,20.58
2023-08-23T00:04:52.128Z,20.15
2023-08-23T00:06:33.876Z,20.12
2023-08-23T00:08:15.627Z,19.89
2023-08-23T00:09:57.599Z,19.50
2023-08-23T00:11:39.356Z,19.73
2023-08-23T00:13:21.158Z,19.63
2023-08-23T00:15:02.937Z,19.63
2023-08-23T00:16:44.809Z,19.73
2023-08-23T00:18:26.605Z,19.63
2023-08-23T00:20:08.379Z,19.78
2023-08-23T00:21:50.185Z,19.67
2023-08-23T00:23:31.949Z,19.69
2023-08-23T00:25:13.738Z,19.66
2023-08-23T00:26:55.522Z,19.74
2023-08-23T00:28:37.281Z,19.50
2023-08-23T00:30:19.073Z,19.84
2023-08-23T00:32:00.901Z,20.10
2023-08-23T00:33:42.842Z,20.12
2023-08-23T00:35:24.697Z,19.97
2023-08-23T00:37:06.445Z,19.97
2023-08-23T00:38:48.209Z,19.73
2023-08-23T00:40:29.969Z,19.45
2023-08-23T00:42:11.728Z,19.58
2023-08-23T00:43:53.494Z,19.26
2023-08-23T00:45:35.244Z,19.34
2023-08-23T00:47:16.980Z,19.49
2023-08-23T00:48:58.750Z,19.32
2023-08-23T00:50:40.510Z,19.25
2023-08-23T00:52:22.277Z,19.21
2023-08-23T00:54:04.043Z,19.08
2023-08-23T00:55:45.798Z,19.18
2023-08-23T00:57:27.594Z,19.35
2023-08-23T00:59:09.426Z,19.62
2023-08-23T01:00:51.241Z,19.70
2023-08-23T01:02:33.002Z,19.88
2023-08-23T01:04:14.781Z,19.89
2023-08-23T01:05:56.592Z,20.02
2023-08-23T01:07:38.456Z,20.11
2023-08-23T01:09:20.229Z,20.24
2023-08-23T01:11:02.006Z,20.13
2023-08-23T01:12:43.761Z,19.73
2023-08-23T01:14:25.555Z,19.71
2023-08-23T01:16:07.382Z,19.76
2023-08-23T01:17:49.453Z,19.54
2023-08-23T01:19:31.579Z,19.51
2023-08-23T01:21:13.388Z,19.60
2023-08-23T01:22:55.134Z,19.69
2023-08-23T01:24:36.910Z,19.80
2023-08-23T01:26:18.702Z,19.89
2023-08-23T01:28:00.798Z,19.85
2023-08-23T01:29:42.827Z,19.70
2023-08-23T01:31:24.691Z,19.14
2023-08-23T01:33:06.536Z,18.90
2023-08-23T01:34:48.306Z,18.67
2023-08-23T01:36:30.086Z,18.80
2023-08-23T01:38:11.855Z,19.05
2023-08-23T01:39:53.608Z,18.99
2023-08-23T01:41:35.369Z,19.09
2023-08-23T01:43:17.171Z,19.20
2023-08-23T01:44:58.918Z,19.03
2023-08-23T01:46:40.671Z,18.56
2023-08-23T01:48:22.439Z,18.56
2023-08-23T01:50:04.185Z,18.77
2023-08-23T01:51:45.947Z,18.97
2023-08-23T01:53:27.732Z,19.06
2023-08-23T01:55:09.730Z,19.00
2023-08-23T01:56:51.481Z,18.81
2023-08-23T01:58:33.249Z,18.49
2023-08-23T02:00:15.004Z,18.32
2023-08-23T02:01:56.788Z,18.12
2023-08-23T02:03:38.577Z,17.90
2023-08-23T02:05:20.334Z,18.06
2023-08-23T02:07:02.094Z,18.03
2023-08-23T02:08:43.857Z,18.31
2023-08-23T02:10:25.630Z,18.41
2023-08-23T02:12:07.418Z,18.63
2023-08-23T02:13:49.190Z,18.60
2023-08-23T02:15:30.990Z,18.72
2023-08-23T02:17:12.800Z,18.76
2023-08-23T02:18:54.562Z,18.40
2023-08-23T02:20:36.313Z,18.53
2023-08-23T02:22:18.103Z,18.66
2023-08-23T02:23:59.891Z,18.53
2023-08-23T02:25:41.670Z,18.60
2023-08-23T02:27:23.434Z,18.72
2023-08-23T02:29:06.063Z,19.08
2023-08-23T02:30:47.798Z,19.19
2023-08-23T02:32:29.627Z,18.90
2023-08-23T02:34:11.421Z,18.81
2023-08-23T02:35:53.184Z,19.01
2023-08-23T02:37:34.995Z,19.09
2023-08-23T02:39:16.746Z,19.03
2023-08-23T02:40:58.522Z,18.99
2023-08-23T02:42:40.271Z,18.97
2023-08-23T02:44:22.073Z,18.86
2023-08-23T02:46:03.831Z,18.84
2023-08-23T02:47:45.825Z,18.91
2023-08-23T02:49:27.828Z,18.91
2023-08-23T02:51:09.601Z,18.86
2023-08-23T02:52:51.422Z,18.17
2023-08-23T02:54:33.166Z,18.18
2023-08-23T02:56:14.939Z,17.97
2023-08-23T02:57:56.749Z,18.05
2023-08-23T02:59:38.488Z,18.22
2023-08-23T03:01:20.276Z,18.47
2023-08-23T03:03:02.158Z,18.55
2023-08-23T03:04:43.962Z,17.79
2023-08-23T03:06:25.718Z,17.85
2023-08-23T03:08:07.478Z,17.89
2023-08-23T03:09:49.236Z,17.79
2023-08-23T03:11:30.996Z,17.77
2023-08-23T03:13:12.747Z,18.16
2023-08-23T03:14:54.504Z,18.16
2023-08-23T03:16:36.294Z,17.72
2023-08-23T03:18:18.185Z,17.73
2023-08-23T03:19:59.957Z,17.82
2023-08-23T03:21:41.703Z,17.79
2023-08-23T03:23:23.510Z,17.64
2023-08-23T03:25:05.271Z,17.54
2023-08-23T03:26:47.005Z,17.67
2023-08-23T03:28:28.804Z,17.83
2023-08-23T03:30:10.550Z,17.80
2023-08-23T03:31:52.294Z,17.80
2023-08-23T03:33:34.057Z,18.06
2023-08-23T03:35:15.989Z,17.89
2023-08-23T03:36:57.772Z,17.87
2023-08-23T03:38:39.520Z,17.89
2023-08-23T03:40:21.266Z,17.77
2023-08-23T03:42:03.064Z,17.38
2023-08-23T03:43:44.831Z,17.57
2023-08-23T03:45:26.582Z,17.57
2023-08-23T03:47:08.353Z,17.61
2023-08-23T03:48:50.121Z,17.60
2023-08-23T03:50:31.870Z,17.70
2023-08-23T03:52:13.634Z,17.89
2023-08-23T03:53:55.419Z,17.79
2023-08-23T03:55:37.172Z,17.64
2023-08-23T03:57:18.922Z,17.56
2023-08-23T03:59:00.670Z,17.50
2023-08-23T04:00:42.424Z,17.70
2023-08-23T04:02:24.205Z,17.56
2023-08-23T04:04:06.083Z,17.70
2023-08-23T04:05:47.993Z,17.86
2023-08-23T04:07:29.768Z,18.10
2023-08-23T04:09:11.539Z,18.14
2023-08-23T04:10:53.296Z,18.15
2023-08-23T04:12:35.072Z,17.88
2023-08-23T04:14:16.881Z,17.95
2023-08-23T04:15:58.668Z,17.92
2023-08-23T04:17:40.474Z,17.88
2023-08-23T04:19:22.266Z,17.85
2023-08-23T04:21:04.067Z,17.81
2023-08-23T04:22:45.841Z,17.60
2023-08-23T04:24:27.609Z,17.66
2023-08-23T04:26:09.378Z,17.82
2023-08-23T04:27:51.127Z,17.82
2023-08-23T04:29:32.883Z,17.70
2023-08-23T04:31:14.664Z,17.94
2023-08-23T04:32:56.517Z,17.67
2023-08-23T04:34:38.327Z,17.78
2023-08-23T04:36:20.080Z,17.66
2023-08-23T04:38:01.860Z,17.58
2023-08-23T04:39:43.600Z,17.42
2023-08-23T04:41:25.340Z,17.41
2023-08-23T04:43:07.102Z,17.47
2023-08-23T04:44:48.871Z,17.48
2023-08-23T04:46:30.653Z,17.76
2023-08-23T04:48:12.459Z,17.44
2023-08-23T04:49:54.221Z,17.67
2023-08-23T04:51:35.970Z,17.63
2023-08-23T04:53:17.746Z,17.32
2023-08-23T04:54:59.521Z,17.64
2023-08-23T04:56:41.277Z,17.54
2023-08-23T04:58:23.033Z,17.58
2023-08-23T05:00:04.781Z,17.53
2023-08-23T05:01:46.549Z,17.33
2023-08-23T05:03:28.342Z,17.52
2023-08-23T05:05:10.192Z,17.38
2023-08-23T05:06:52.001Z,17.48
2023-08-23T05:08:33.743Z,17.63
2023-08-23T05:10:15.506Z,17.88
2023-08-23T05:11:57.278Z,17.65
2023-08-23T05:13:39.040Z,18.24
2023-08-23T05:15:20.832Z,17.92
2023-08-23T05:17:02.600Z,17.94
2023-08-23T05:18:44.384Z,18.06
2023-08-23T05:20:26.136Z,17.70
2023-08-23T05:22:07.900Z,17.98
2023-08-23T05:23:49.660Z,17.78
2023-08-23T05:25:31.452Z,18.03
2023-08-23T05:27:13.207Z,18.16
2023-08-23T05:28:54.974Z,18.25
2023-08-23T05:30:36.737Z,18.42
2023-08-23T05:32:18.506Z,18.42
2023-08-23T05:34:00.297Z,18.38
2023-08-23T05:35:42.063Z,18.38
2023-08-23T05:37:23.829Z,18.40
2023-08-23T05:39:05.612Z,17.87
2023-08-23T05:40:47.415Z,17.99
2023-08-23T05:42:29.151Z,18.02
2023-08-23T05:44:10.915Z,18.16
2023-08-23T05:45:52.751Z,17.86
2023-08-23T05:47:34.638Z,17.81
2023-08-23T05:49:16.449Z,17.80
2023-08-23T05:50:58.220Z,17.78
2023-08-23T05:52:39.977Z,17.51
2023-08-23T05:54:21.747Z,17.61
2023-08-23T05:56:03.503Z,17.20
2023-08-23T05:57:45.545Z,17.57
2023-08-23T05:59:27.580Z,17.41
2023-08-23T06:01:09.356Z,17.42
2023-08-23T06:02:51.248Z,17.64
2023-08-23T06:04:33.045Z,17.55
2023-08-23T06:06:14.793Z,17.88
2023-08-23T06:07:56.552Z,17.61
2023-08-23T06:09:38.283Z,17.72
2023-08-23T06:11:20.024Z,17.55
2023-08-23T06:13:01.828Z,17.48
2023-08-23T06:14:43.569Z,17.66
2023-08-23T06:16:25.404Z,17.40
2023-08-23T06:18:07.264Z,17.91
2023-08-23T06:19:49.057Z,17.99
2023-08-23T06:21:30.909Z,17.92
2023-08-23T06:23:12.697Z,18.04
2023-08-23T06:24:54.453Z,18.13
2023-08-23T06:26:36.213Z,18.27
2023-08-23T06:28:18.013Z,17.98
2023-08-23T06:29:59.763Z,17.89
2023-08-23T06:31:41.587Z,17.98
2023-08-23T06:33:23.460Z,18.06
2023-08-23T06:35:05.240Z,18.10
2023-08-23T06:36:47.006Z,18.02
2023-08-23T06:38:28.758Z,17.98
2023-08-23T06:40:10.521Z,18.22
2023-08-23T06:41:52.285Z,18.38
2023-08-23T06:43:34.067Z,18.38
2023-08-23T06:45:15.837Z,18.40
2023-08-23T06:46:57.627Z,18.23
2023-08-23T06:48:39.385Z,18.07
2023-08-23T06:50:21.207Z,18.10
2023-08-23T06:52:03.064Z,18.16
2023-08-23T06:53:44.812Z,18.12
2023-08-23T06:55:26.612Z,18.48
2023-08-23T06:57:08.360Z,18.69
2023-08-23T06:58:50.117Z,18.93
2023-08-23T07:00:31.944Z,19.00
2023-08-23T07:02:13.724Z,18.97
2023-08-23T07:03:55.542Z,19.01
2023-08-23T07:05:37.350Z,18.88
2023-08-23T07:07:19.092Z,18.63
2023-08-23T07:09:00.886Z,18.53
2023-08-23T07:10:44.396Z,18.72
2023-08-23T07:12:27.136Z,18.90
2023-08-23T07:14:08.875Z,18.98
2023-08-23T07:15:50.639Z,19.20
2023-08-23T07:17:32.442Z,19.17
2023-08-23T07:19:14.235Z,19.10
2023-08-23T07:20:56.001Z,19.01
2023-08-23T07:22:37.779Z,19.19
2023-08-23T07:24:19.522Z,18.88
2023-08-23T07:26:01.582Z,18.64
2023-08-23T07:27:43.401Z,18.57
2023-08-23T07:29:25.214Z,18.44
2023-08-23T07:31:06.984Z,18.59
2023-08-23T07:32:49.524Z,18.89
2023-08-23T07:34:31.436Z,19.13
2023-08-23T07:36:13.335Z,19.32
2023-08-23T07:37:55.347Z,19.29
2023-08-23T07:39:37.120Z,19.86
2023-08-23T07:41:18.884Z,19.76
2023-08-23T07:43:00.973Z,20.35
2023-08-23T07:44:42.797Z,20.26
2023-08-23T07:46:24.582Z,20.50
2023-08-23T07:48:06.400Z,20.80
2023-08-23T07:49:48.329Z,21.34
2023-08-23T07:51:30.199Z,21.54
2023-08-23T07:53:11.973Z,21.67
2023-08-23T07:54:53.737Z,22.04
2023-08-23T07:56:35.505Z,22.62
2023-08-23T07:58:17.284Z,23.10
2023-08-23T07:59:59.059Z,23.27
2023-08-23T08:01:40.859Z,23.63
2023-08-23T08:03:23.361Z,23.98
2023-08-23T08:05:05.115Z,24.31
2023-08-23T08:06:46.931Z,24.56
2023-08-23T08:08:28.822Z,24.86
2023-08-23T08:10:10.568Z,24.97
2023-08-23T08:11:52.359Z,25.11
2023-08-23T08:13:34.279Z,25.36
2023-08-23T08:15:16.266Z,25.61
2023-08-23T08:16:58.126Z,25.77
2023-08-23T08:18:39.922Z,25.93
2023-08-23T08:20:21.710Z,26.00
2023-08-23T08:22:03.509Z,26.20
2023-08-23T08:23:45.276Z,26.29
2023-08-23T08:25:27.116Z,26.51
2023-08-23T08:27:09.082Z,26.69
2023-08-23T08:28:50.850Z,26.82
2023-08-23T08:30:32.863Z,26.92
2023-08-23T08:32:14.908Z,27.08
2023-08-23T08:33:56.805Z,27.22
2023-08-23T08:35:38.736Z,27.14
2023-08-23T08:37:20.583Z,27.02
2023-08-23T08:39:02.376Z,26.75
2023-08-23T08:40:44.140Z,26.99
2023-08-23T08:42:25.921Z,27.11
2023-08-23T08:44:08.324Z,26.97
2023-08-23T08:45:50.185Z,26.93
2023-08-23T08:47:32.180Z,27.03
2023-08-23T08:49:13.974Z,27.10
2023-08-23T08:50:55.718Z,27.13
2023-08-23T08:52:42.785Z,27.21
2023-08-23T08:54:24.555Z,27.26
2023-08-23T08:56:06.292Z,27.23
2023-08-23T08:57:48.247Z,27.29
2023-08-23T08:59:30.235Z,27.30
2023-08-23T09:01:12.035Z,27.56
2023-08-23T09:02:53.993Z,27.80
2023-08-23T09:04:35.783Z,27.84
2023-08-23T09:06:17.521Z,27.92
2023-08-23T09:07:59.299Z,28.01
2023-08-23T09:09:41.081Z,28.17
2023-08-23T09:11:22.984Z,28.12
2023-08-23T09:13:04.766Z,28.10
2023-08-23T09:14:46.509Z,28.31
2023-08-23T09:16:28.257Z,28.26
2023-08-23T09:18:10.094Z,28.12
2023-08-23T09:19:51.906Z,28.16
2023-08-23T09:21:33.667Z,28.33
2023-08-23T09:23:15.453Z,28.40
2023-08-23T09:24:57.210Z,28.14
2023-08-23T09:26:38.988Z,28.17
2023-08-23T09:28:20.762Z,28.18
2023-08-23T09:30:02.527Z,28.22
2023-08-23T09:31:44.347Z,28.20
2023-08-23T09:33:26.209Z,28.27
2023-08-23T09:35:07.990Z,28.37
2023-08-23T09:36:49.776Z,28.40
2023-08-23T09:38:31.532Z,28.58
2023-08-23T09:40:13.281Z,28.79
2023-08-23T09:42:01.230Z,28.75
2023-08-23T09:43:43.519Z,28.82
2023-08-23T09:45:25.274Z,28.66
2023-08-23T09:48:48.751Z,28.20
2023-08-23T09:50:30.645Z,28.54
2023-08-23T09:52:12.409Z,28.94
2023-08-23T09:53:54.165Z,28.79
2023-08-23T09:55:35.926Z,28.76
2023-08-23T09:57:17.680Z,29.16
2023-08-23T09:58:59.444Z,29.24
2023-08-23T10:00:41.233Z,29.37
2023-08-23T10:02:23.121Z,29.57
2023-08-23T10:04:05.013Z,29.38
2023-08-23T10:05:46.830Z,29.44
2023-08-23T10:07:28.583Z,29.40
2023-08-23T10:09:10.353Z,29.41
2023-08-23T10:10:52.138Z,29.48
2023-08-23T10:12:33.885Z,29.53
2023-08-23T10:14:15.655Z,29.62
2023-08-23T10:15:57.424Z,29.77
2023-08-23T10:17:39.241Z,29.93
2023-08-23T10:19:20.993Z,29.60
2023-08-23T10:21:02.745Z,29.81
2023-08-23T10:22:44.530Z,29.58
2023-08-23T10:24:26.276Z,29.45
2023-08-23T10:26:08.002Z,29.91
2023-08-23T10:27:50.056Z,29.98
2023-08-23T10:29:31.963Z,30.20
2023-08-23T10:31:20.416Z,30.34
2023-08-23T10:33:02.928Z,30.42
2023-08-23T10:34:44.751Z,30.78
2023-08-23T10:36:26.548Z,30.83
2023-08-23T10:38:08.374Z,30.71
2023-08-23T10:39:50.754Z,30.52
2023-08-23T10:41:32.568Z,30.64
2023-08-23T10:43:14.366Z,30.50
2023-08-23T10:44:56.145Z,30.53
2023-08-23T10:46:37.919Z,30.65
2023-08-23T10:48:19.889Z,30.67
2023-08-23T10:50:01.705Z,30.33
2023-08-23T10:51:43.464Z,30.54
2023-08-23T10:53:28.039Z,30.49
2023-08-23T10:55:10.966Z,30.39
2023-08-23T10:56:52.722Z,30.26
2023-08-23T10:58:34.530Z,30.41
2023-08-23T11:00:16.362Z,30.58
2023-08-23T11:01:58.151Z,30.20
2023-08-23T11:03:39.911Z,30.31
2023-08-23T11:05:21.697Z,30.12
2023-08-23T11:07:03.492Z,30.44
2023-08-23T11:08:45.236Z,30.51
2023-08-23T11:10:27.014Z,30.33
2023-08-23T11:12:08.770Z,30.64
2023-08-23T11:13:50.521Z,30.89
2023-08-23T11:15:32.295Z,31.14
2023-08-23T11:17:14.050Z,30.96
2023-08-23T11:18:55.837Z,30.97
2023-08-23T11:20:37.607Z,30.63
2023-08-23T11:22:19.356Z,30.53
2023-08-23T11:24:01.104Z,30.65
2023-08-23T11:25:42.890Z,30.77
2023-08-23T11:27:24.652Z,30.17
2023-08-23T11:29:06.403Z,30.71
2023-08-23T11:30:48.160Z,30.40
2023-08-23T11:32:29.904Z,30.32
2023-08-23T11:34:11.651Z,30.41
2023-08-23T11:35:53.431Z,30.73
2023-08-23T11:37:35.160Z,30.75
2023-08-23T11:39:16.907Z,30.99
2023-08-23T11:40:58.671Z,30.88
2023-08-23T11:42:40.436Z,31.02
2023-08-23T11:44:22.220Z,30.89
2023-08-23T11:46:04.098Z,31.04
2023-08-23T11:47:46.102Z,30.76
2023-08-23T11:49:28.140Z,30.86
2023-08-23T11:51:09.892Z,30.87
2023-08-23T11:52:51.640Z,31.16
2023-08-23T11:54:33.540Z,30.81
2023-08-23T11:56:15.313Z,31.19
2023-08-23T11:57:57.080Z,31.37
2023-08-23T11:59:38.860Z,31.30
2023-08-23T12:01:20.649Z,30.98
2023-08-23T12:03:02.455Z,31.01
2023-08-23T12:04:44.257Z,30.57
2023-08-23T12:06:26.007Z,30.89
2023-08-23T12:08:07.767Z,30.82
2023-08-23T12:09:49.525Z,30.63
2023-08-23T12:11:31.295Z,30.70
2023-08-23T12:13:13.071Z,30.28
2023-08-23T12:14:54.858Z,30.30
2023-08-23T12:16:36.853Z,30.30
2023-08-23T12:18:18.720Z,30.21
2023-08-23T12:20:00.573Z,30.46
2023-08-23T12:21:42.313Z,30.30
2023-08-23T12:23:24.091Z,30.17
2023-08-23T12:25:05.848Z,30.52
2023-08-23T12:26:47.618Z,30.85
2023-08-23T12:28:29.415Z,30.87
2023-08-23T12:30:11.168Z,31.02
2023-08-23T12:31:53.983Z,31.17
2023-08-23T12:33:37.449Z,30.65
2023-08-23T12:35:19.211Z,30.70
2023-08-23T12:37:00.969Z,30.72
2023-08-23T12:38:43.023Z,30.68
2023-08-23T12:40:24.891Z,30.60
2023-08-23T12:42:06.641Z,30.81
2023-08-23T12:43:48.515Z,30.82
2023-08-23T12:45:30.638Z,31.07
2023-08-23T12:47:12.547Z,30.63
2023-08-23T12:48:54.529Z,30.55
2023-08-23T12:50:36.404Z,30.48
2023-08-23T12:52:18.164Z,30.33
2023-08-23T12:53:59.945Z,30.60
2023-08-23T12:55:41.714Z,30.50
2023-08-23T12:57:23.462Z,30.88
2023-08-23T12:59:05.223Z,31.11
2023-08-23T13:00:47.207Z,30.59
2023-08-23T13:02:29.142Z,30.73
2023-08-23T13:04:12.441Z,30.35
2023-08-23T13:05:54.216Z,30.38
2023-08-23T13:07:35.990Z,30.53
2023-08-23T13:09:17.736Z,30.50
2023-08-23T13:10:59.552Z,30.54
2023-08-23T13:12:41.334Z,30.81
2023-08-23T13:14:23.879Z,30.92
2023-08-23T13:16:05.904Z,30.55
2023-08-23T13:17:48.080Z,30.43
2023-08-23T13:19:30.469Z,30.47
2023-08-23T13:21:12.455Z,30.58
2023-08-23T13:22:54.459Z,30.44
2023-08-23T13:24:37.772Z,30.38
2023-08-23T13:26:19.770Z,30.45
2023-08-23T13:28:01.609Z,30.94
2023-08-23T13:29:43.400Z,30.80
2023-08-23T13:31:25.250Z,30.66
2023-08-23T13:33:07.254Z,30.81
2023-08-23T13:34:49.195Z,30.29
2023-08-23T13:36:30.961Z,30.33
2023-08-23T13:38:12.718Z,30.46
2023-08-23T13:39:54.484Z,30.12
2023-08-23T13:41:36.230Z,30.18
2023-08-23T13:43:17.996Z,30.61
2023-08-23T13:44:59.766Z,30.46
2023-08-23T13:46:41.607Z,30.50
2023-08-23T13:48:23.394Z,30.63
2023-08-23T13:50:05.167Z,30.51
2023-08-23T13:51:46.944Z,30.07
2023-08-23T13:53:28.702Z,30.02
2023-08-23T13:55:10.470Z,29.74
2023-08-23T13:56:52.360Z,29.99
2023-08-23T13:58:34.102Z,29.84
2023-08-23T14:00:15.842Z,30.21
2023-08-23T14:01:57.624Z,30.31
2023-08-23T14:03:39.375Z,29.81
2023-08-23T14:05:23.666Z,29.46
2023-08-23T14:07:05.497Z,29.42
2023-08-23T14:08:47.273Z,29.35
2023-08-23T14:10:29.021Z,29.40
2023-08-23T14:12:10.781Z,29.92
2023-08-23T14:13:53.191Z,29.67
2023-08-23T14:15:35.081Z,29.55
2023-08-23T14:17:16.838Z,29.69
2023-08-23T14:18:58.865Z,29.77
2023-08-23T14:20:40.728Z,29.56
2023-08-23T14:22:23.445Z,29.64
2023-08-23T14:24:05.209Z,29.20
2023-08-23T14:25:46.980Z,29.33
2023-08-23T14:27:30.064Z,29.32
2023-08-23T14:29:14.387Z,29.36
2023-08-23T14:30:56.571Z,29.56
2023-08-23T14:32:38.562Z,29.39
2023-08-23T14:34:20.488Z,29.36
2023-08-23T14:36:02.489Z,29.68
2023-08-23T14:37:44.320Z,29.31
2023-08-23T14:39:26.086Z,29.23
2023-08-23T14:41:07.882Z,28.84
2023-08-23T14:42:49.686Z,29.21
2023-08-23T14:44:31.461Z,29.64
2023-08-23T14:46:13.231Z,29.50
2023-08-23T14:47:55.036Z,29.32
2023-08-23T14:49:36.840Z,29.77
2023-08-23T14:51:18.646Z,30.15
2023-08-23T14:53:00.396Z,30.39
2023-08-23T14:54:42.145Z,30.20
2023-08-23T14:56:23.902Z,29.76
2023-08-23T14:58:05.633Z,29.29
2023-08-23T14:59:47.385Z,29.37
2023-08-23T15:01:29.167Z,29.58
2023-08-23T15:03:11.104Z,29.78
2023-08-23T15:04:52.935Z,30.00
2023-08-23T15:06:34.691Z,29.81
2023-08-23T15:08:16.461Z,29.64
2023-08-23T15:09:58.226Z,29.48
2023-08-23T15:11:40.003Z,29.69
2023-08-23T15:13:21.746Z,29.70
2023-08-23T15:15:03.500Z,29.81
2023-08-23T15:16:47.286Z,29.70
2023-08-23T15:18:29.319Z,29.80
2023-08-23T15:20:11.122Z,29.76
2023-08-23T15:21:52.887Z,29.62
2023-08-23T15:23:34.633Z,29.61
2023-08-23T15:25:16.424Z,29.42
2023-08-23T15:26:58.167Z,29.13
2023-08-23T15:28:50.713Z,29.13
2023-08-23T15:30:39.080Z,28.95
2023-08-23T15:32:21.814Z,28.95
2023-08-23T15:34:03.582Z,28.87
2023-08-23T15:35:45.590Z,28.85
2023-08-23T15:37:27.427Z,28.71
2023-08-23T15:39:09.167Z,28.50
2023-08-23T15:40:51.063Z,28.10
2023-08-23T15:42:32.903Z,28.00
2023-08-23T15:44:14.665Z,27.83
2023-08-23T15:45:56.421Z,27.80
2023-08-23T15:47:38.359Z,27.92
2023-08-23T15:49:20.165Z,27.86
2023-08-23T15:51:01.903Z,27.81
2023-08-23T15:52:43.658Z,27.81
2023-08-23T15:54:25.408Z,27.74
2023-08-23T15:56:07.162Z,27.82
2023-08-23T15:57:48.997Z,27.86
2023-08-23T15:59:30.937Z,27.93
2023-08-23T16:01:12.721Z,27.88
2023-08-23T16:02:54.591Z,27.83
2023-08-23T16:04:36.511Z,27.55
2023-08-23T16:06:18.291Z,27.40
2023-08-23T16:08:00.053Z,27.28
2023-08-23T16:09:42.338Z,27.29
2023-08-23T16:11:24.426Z,27.32
2023-08-23T16:13:06.285Z,27.11
2023-08-23T16:14:48.087Z,27.15
2023-08-23T16:16:29.931Z,27.09
2023-08-23T16:18:12.482Z,27.15
2023-08-23T16:19:54.392Z,27.30
2023-08-23T16:21:36.162Z,27.27
2023-08-23T16:23:18.001Z,27.22
2023-08-23T16:24:59.751Z,27.14
2023-08-23T16:26:41.609Z,27.19
2023-08-23T16:28:23.357Z,27.20
2023-08-23T16:30:05.799Z,27.29
2023-08-23T16:31:47.767Z,27.19
2023-08-23T16:33:29.577Z,27.07
2023-08-23T16:35:11.542Z,27.02
2023-08-23T16:36:53.446Z,26.93
2023-08-23T16:38:35.211Z,26.91
2023-08-23T16:40:16.978Z,26.78
2023-08-23T16:41:58.728Z,26.78
2023-08-23T16:43:40.533Z,26.77
2023-08-23T16:45:22.306Z,26.77
2023-08-23T16:47:04.068Z,26.56
2023-08-23T16:48:45.874Z,26.48
2023-08-23T16:50:27.617Z,26.52
2023-08-23T16:52:09.362Z,26.59
2023-08-23T16:53:51.136Z,26.65
2023-08-23T16:55:32.876Z,26.57
2023-08-23T16:57:14.631Z,26.51
2023-08-23T16:58:56.410Z,26.59
2023-08-23T17:00:38.158Z,26.40
2023-08-23T17:02:19.952Z,26.39
2023-08-23T17:04:01.736Z,26.36
2023-08-23T17:05:43.547Z,26.50
2023-08-23T17:07:25.332Z,26.28
2023-08-23T17:09:07.094Z,26.25
2023-08-23T17:10:48.863Z,26.22
2023-08-23T17:12:30.626Z,26.10
2023-08-23T17:14:12.412Z,26.04
2023-08-23T17:15:54.195Z,26.06
2023-08-23T17:17:36.076Z,26.00
2023-08-23T17:19:18.213Z,25.91
2023-08-23T17:21:00.271Z,26.00
2023-08-23T17:22:42.066Z,25.79
2023-08-23T17:24:23.837Z,25.67
2023-08-23T17:26:05.648Z,25.65
2023-08-23T17:27:47.500Z,25.67
2023-08-23T17:29:29.265Z,25.41
2023-08-23T17:31:11.072Z,25.40
2023-08-23T17:32:53.154Z,25.35
2023-08-23T17:34:35.119Z,25.31
2023-08-23T17:36:16.900Z,25.16
2023-08-23T17:37:58.930Z,25.18
2023-08-23T17:39:40.809Z,25.03
2023-08-23T17:41:22.783Z,24.78
2023-08-23T17:43:04.660Z,24.47
2023-08-23T17:44:46.440Z,24.43
2023-08-23T17:46:28.238Z,24.42
2023-08-23T17:48:10.026Z,24.44
2023-08-23T17:49:51.786Z,24.47
2023-08-23T17:51:33.590Z,24.32
2023-08-23T17:53:15.378Z,24.24
2023-08-23T17:54:57.161Z,23.89
2023-08-23T17:56:38.920Z,24.01
2023-08-23T17:58:20.683Z,24.01
2023-08-23T18:00:02.481Z,24.02
2023-08-23T18:01:44.286Z,24.13
2023-08-23T18:03:26.026Z,24.16
2023-08-23T18:05:07.846Z,24.05
2023-08-23T18:06:49.983Z,23.85
2023-08-23T18:08:32.026Z,23.84
2023-08-23T18:10:13.773Z,23.53
2023-08-23T18:11:55.544Z,23.54
2023-08-23T18:13:37.331Z,23.48
2023-08-23T18:15:19.093Z,23.48
2023-08-23T18:17:00.862Z,23.30
2023-08-23T18:18:42.603Z,23.20
2023-08-23T18:20:24.374Z,23.08
2023-08-23T18:22:06.151Z,23.04
2023-08-23T18:23:47.940Z,23.07
2023-08-23T18:25:29.706Z,22.74
2023-08-23T18:27:11.450Z,22.65
2023-08-23T18:28:53.243Z,22.67
2023-08-23T18:30:35.051Z,22.83
2023-08-23T18:32:17.937Z,22.93
2023-08-23T18:33:59.759Z,22.96
2023-08-23T18:35:41.527Z,22.96
2023-08-23T18:37:23.319Z,22.93
2023-08-23T18:39:05.113Z,22.78
2023-08-23T18:40:46.888Z,22.57
2023-08-23T18:42:28.691Z,22.31
2023-08-23T18:44:10.468Z,22.60
2023-08-23T18:45:52.228Z,22.68
2023-08-23T18:47:34.016Z,22.71
2023-08-23T18:49:15.829Z,22.78
2023-08-23T18:50:57.582Z,22.88
2023-08-23T18:52:39.351Z,23.07
2023-08-23T18:54:21.153Z,23.10
2023-08-23T18:56:02.902Z,23.23
2023-08-23T18:57:44.658Z,23.16
2023-08-23T18:59:26.424Z,22.87
2023-08-23T19:01:08.197Z,22.92
2023-08-23T19:02:50.175Z,22.96
2023-08-23T19:04:32.155Z,22.95
2023-08-23T19:06:13.937Z,22.80
2023-08-23T19:07:55.694Z,22.81
2023-08-23T19:09:37.479Z,22.74
2023-08-23T19:11:19.250Z,22.68
2023-08-23T19:13:01.026Z,22.84
2023-08-23T19:14:42.788Z,22.75
2023-08-23T19:16:24.601Z,22.52
2023-08-23T19:18:06.434Z,22.36
2023-08-23T19:19:48.233Z,22.23
2023-08-23T19:21:29.996Z,22.15
2023-08-23T19:23:11.757Z,21.90
2023-08-23T19:24:53.540Z,21.51
2023-08-23T19:26:35.333Z,21.43
2023-08-23T19:28:17.119Z,21.65
2023-08-23T19:29:58.912Z,21.88
2023-08-23T19:31:40.683Z,22.10
2023-08-23T19:33:22.497Z,21.88
2023-08-23T19:35:04.264Z,21.91
2023-08-23T19:36:46.052Z,22.11
2023-08-23T19:38:27.841Z,21.93
2023-08-23T19:40:09.768Z,21.63
2023-08-23T19:41:51.533Z,21.19
2023-08-23T19:43:33.354Z,21.39
2023-08-23T19:45:16.220Z,21.49
2023-08-23T19:46:58.148Z,21.60
2023-08-23T19:48:39.960Z,21.54
2023-08-23T19:50:23.008Z,21.49
2023-08-23T19:52:06.479Z,21.51
2023-08-23T19:53:48.258Z,21.57
2023-08-23T19:55:30.033Z,21.83
2023-08-23T19:57:11.833Z,21.58
2023-08-23T19:58:53.607Z,21.71
2023-08-23T20:00:35.374Z,21.69
2023-08-23T20:02:17.172Z,21.61
2023-08-23T20:03:58.983Z,21.73
2023-08-23T20:05:40.745Z,21.84
2023-08-23T20:07:22.487Z,21.87
2023-08-23T20:09:04.261Z,21.96
2023-08-23T20:10:46.032Z,21.97
2023-08-23T20:12:27.784Z,22.06
2023-08-23T20:14:09.536Z,22.27
2023-08-23T20:15:51.316Z,22.15
2023-08-23T20:17:33.090Z,21.86
2023-08-23T20:19:14.865Z,21.82
2023-08-23T20:20:56.613Z,21.77
2023-08-23T20:22:39.917Z,21.54
2023-08-23T20:24:21.666Z,21.63
2023-08-23T20:26:03.432Z,21.84
2023-08-23T20:27:45.201Z,21.83
2023-08-23T20:29:26.963Z,21.51
2023-08-23T20:31:08.749Z,21.88
2023-08-23T20:32:50.514Z,21.99
2023-08-23T20:34:32.308Z,22.15
2023-08-23T20:36:14.055Z,22.33
2023-08-23T20:37:55.783Z,22.21
2023-08-23T20:39:37.552Z,22.27
2023-08-23T20:41:19.348Z,22.21
2023-08-23T20:43:01.101Z,22.35
2023-08-23T20:44:42.848Z,22.31
2023-08-23T20:46:24.596Z,22.19
2023-08-23T20:48:06.479Z,22.03
2023-08-23T20:49:48.248Z,21.97
2023-08-23T20:51:30.024Z,21.82
2023-08-23T20:53:11.811Z,21.91
2023-08-23T20:54:53.556Z,21.65
2023-08-23T20:56:35.309Z,21.45
2023-08-23T20:58:17.048Z,21.31
2023-08-23T20:59:58.840Z,21.18
2023-08-23T21:01:40.601Z,21.04
2023-08-23T21:03:22.372Z,21.08
2023-08-23T21:05:04.125Z,20.93
2023-08-23T21:06:46.524Z,21.00
2023-08-23T21:08:28.378Z,21.07
2023-08-23T21:10:10.156Z,21.14
2023-08-23T21:11:52.168Z,21.23
2023-08-23T21:13:34.001Z,21.35
2023-08-23T21:15:15.767Z,21.58
2023-08-23T21:16:57.533Z,21.64
2023-08-23T21:18:39.312Z,21.70
2023-08-23T21:20:21.075Z,21.76
2023-08-23T21:22:02.806Z,21.81
2023-08-23T21:23:44.548Z,21.75
2023-08-23T21:25:26.291Z,21.58
2023-08-23T21:27:08.040Z,21.69
2023-08-23T21:28:49.772Z,21.65
2023-08-23T21:30:31.580Z,21.79
2023-08-23T21:32:13.428Z,21.83
2023-08-23T21:33:55.209Z,21.73
2023-08-23T21:35:36.978Z,21.70
2023-08-23T21:37:18.775Z,21.56
2023-08-23T21:39:00.510Z,21.52
2023-08-23T21:40:42.272Z,21.55
2023-08-23T21:42:24.032Z,21.51
2023-08-23T21:44:05.763Z,21.40
2023-08-23T21:45:47.522Z,21.58
2023-08-23T21:47:29.336Z,21.51
2023-08-23T21:49:11.122Z,21.24
2023-08-23T21:50:52.901Z,21.29
2023-08-23T21:52:34.666Z,21.27
2023-08-23T21:54:16.402Z,21.13